Time;durP1;ratioP1;P1;durP2;ratioP2;P2;SDS_P1;SDS_P2;PMS_P1;PMS_P2;Temp;Humidity;BMP_temperature;BMP_pressure;BME280_temperature;BME280_humidity;BME280_pressure;Samples;Min_cycle;Max_cycle;Signal;HPM_P1;HPM_P2
2023/07/17 00:02:10;;;;;;;4.38;3.00;;;;;;;19.14;49.33;100947.88;7398645;19;20074;-68
2023/07/17 00:04:39;;;;;;;6.65;3.75;;;;;;;19.13;49.08;100956.81;7398461;19;20027;-68
2023/07/17 00:07:14;;;;;;;8.38;3.22;;;;;;;19.12;49.21;100959.53;7396655;19;20030;-68
2023/07/17 00:09:49;;;;;;;4.63;2.97;;;;;;;19.07;49.39;100957.16;7396052;19;20109;-68
2023/07/17 00:12:17;;;;;;;8.88;3.05;;;;;;;19.03;49.40;100956.44;7396297;19;20019;-68
2023/07/17 00:14:48;;;;;;;5.82;3.22;;;;;;;18.99;49.61;100938.94;7398201;19;20111;-68
2023/07/17 00:17:17;;;;;;;6.03;3.30;;;;;;;18.97;49.62;100947.91;7398892;19;20077;-68
2023/07/17 00:19:55;;;;;;;6.18;3.13;;;;;;;18.96;49.78;100949.72;7398039;19;20560;-67
2023/07/17 00:22:24;;;;;;;12.38;3.65;;;;;;;18.94;50.02;100954.25;7397655;19;20085;-68
2023/07/17 00:24:53;;;;;;;5.82;3.70;;;;;;;18.92;50.09;100949.97;7397968;19;20391;-68
2023/07/17 00:27:21;;;;;;;6.70;3.35;;;;;;;18.91;50.14;100954.44;7398107;19;20077;-67
2023/07/17 00:29:52;;;;;;;6.90;3.35;;;;;;;18.89;50.04;100945.66;7398076;19;20077;-68
2023/07/17 00:32:21;;;;;;;4.95;3.35;;;;;;;18.88;50.10;100951.94;7396165;19;20026;-68
2023/07/17 00:34:49;;;;;;;5.15;2.97;;;;;;;18.87;50.48;100950.19;7395913;19;20022;-68
2023/07/17 00:37:18;;;;;;;5.90;3.42;;;;;;;18.85;50.25;100946.75;7397731;19;20014;-68
2023/07/17 00:39:48;;;;;;;5.15;3.53;;;;;;;18.84;49.90;100940.59;7397668;19;20022;-68
2023/07/17 00:42:16;;;;;;;6.97;3.10;;;;;;;18.83;50.14;100938.00;7396914;19;20015;-68
2023/07/17 00:44:44;;;;;;;7.50;3.30;;;;;;;18.84;50.25;100940.59;7395278;19;20082;-68
2023/07/17 00:47:16;;;;;;;5.25;3.10;;;;;;;18.85;50.47;100944.09;7397433;19;20419;-68
2023/07/17 00:49:45;;;;;;;7.22;3.30;;;;;;;18.84;50.33;100937.06;7395958;19;20023;-68
2023/07/17 00:52:14;;;;;;;4.38;3.30;;;;;;;18.84;50.28;100937.06;7396511;19;20025;-68
2023/07/17 00:54:44;;;;;;;5.82;3.10;;;;;;;18.84;50.07;100940.59;7396956;19;20536;-68
2023/07/17 00:57:14;;;;;;;5.82;2.95;;;;;;;18.82;50.40;100939.81;7394964;19;20010;-67
2023/07/17 00:59:44;;;;;;;5.90;3.50;;;;;;;18.83;50.60;100948.63;7397151;19;20070;-68
2023/07/17 01:02:16;;;;;;;4.40;3.22;;;;;;;18.80;50.69;100944.34;7396420;19;20025;-68
2023/07/17 01:04:47;;;;;;;7.53;3.63;;;;;;;18.81;50.49;100940.75;7397341;19;20031;-68
2023/07/17 01:07:16;;;;;;;4.55;2.72;;;;;;;18.79;50.77;100933.78;7397173;19;20018;-68
2023/07/17 01:09:45;;;;;;;6.53;3.95;;;;;;;18.78;50.63;100929.41;7395383;19;20074;-69
2023/07/17 01:12:13;;;;;;;5.10;3.10;;;;;;;18.75;50.83;100935.75;7395800;19;20023;-69
2023/07/17 01:14:42;;;;;;;6.63;3.85;;;;;;;18.74;51.01;100939.38;7396735;19;20011;-68
2023/07/17 01:17:10;;;;;;;5.05;3.40;;;;;;;18.71;51.09;100945.69;7394818;19;20022;-69
2023/07/17 01:19:41;;;;;;;10.10;3.25;;;;;;;18.69;50.91;100941.38;7396328;19;20093;-69
2023/07/17 01:22:16;;;;;;;5.63;3.20;;;;;;;18.68;51.19;100939.69;7396201;19;20110;-69
2023/07/17 01:24:47;;;;;;;5.88;3.65;;;;;;;18.65;51.14;100935.41;7396588;19;20019;-69
2023/07/17 01:27:16;;;;;;;7.40;3.45;;;;;;;18.63;51.17;100934.59;7396594;19;20022;-68
2023/07/17 01:29:44;;;;;;;5.13;3.60;;;;;;;18.60;51.11;100933.91;7394512;19;20022;-70
2023/07/17 01:32:12;;;;;;;8.63;4.60;;;;;;;18.55;51.59;100932.34;7394935;19;20081;-69
2023/07/17 01:34:41;;;;;;;5.63;3.40;;;;;;;18.54;51.45;100940.41;7396024;19;20022;-69
2023/07/17 01:37:10;;;;;;;6.95;3.70;;;;;;;18.51;51.41;100932.59;7395477;19;20018;-69
2023/07/17 01:39:38;;;;;;;5.25;2.95;;;;;;;18.49;51.08;100918.56;7395731;19;20026;-69
2023/07/17 01:42:09;;;;;;;4.35;3.10;;;;;;;18.48;51.39;100922.13;7394792;19;20078;-69
2023/07/17 01:44:38;;;;;;;8.00;4.05;;;;;;;18.47;51.49;100926.56;7396112;19;20081;-69
2023/07/17 01:47:08;;;;;;;5.35;3.30;;;;;;;18.46;51.53;100929.31;7395595;19;20082;-67
2023/07/17 01:49:36;;;;;;;6.25;3.38;;;;;;;18.45;51.77;100927.59;7395586;19;20028;-67
2023/07/17 01:52:05;;;;;;;6.13;3.53;;;;;;;18.40;51.89;100923.38;7394596;19;20022;-68
2023/07/17 01:54:33;;;;;;;5.60;3.47;;;;;;;18.38;51.52;100925.25;7392799;19;20094;-68
2023/07/17 01:57:02;;;;;;;6.57;3.42;;;;;;;18.36;52.09;100924.50;7395291;19;20083;-68
2023/07/17 01:59:33;;;;;;;7.88;4.47;;;;;;;18.32;52.24;100928.22;7394877;19;20513;-68
2023/07/17 02:02:01;;;;;;;9.25;3.83;;;;;;;18.28;52.19;100934.63;7393656;19;20075;-67
2023/07/17 02:04:30;;;;;;;11.52;3.95;;;;;;;18.26;52.47;100936.53;7395008;19;20023;-68
2023/07/17 02:06:58;;;;;;;6.72;3.90;;;;;;;18.24;52.87;100941.06;7395087;19;20078;-69
2023/07/17 02:09:26;;;;;;;5.07;3.67;;;;;;;18.20;52.62;100944.81;7393519;19;20504;-67
2023/07/17 02:11:55;;;;;;;5.00;3.08;;;;;;;18.17;52.89;100951.13;7396107;19;20094;-68
2023/07/17 02:14:23;;;;;;;6.22;4.00;;;;;;;18.13;52.97;100954.00;7394639;19;20045;-69
2023/07/17 02:16:54;;;;;;;6.15;3.42;;;;;;;18.08;53.27;100940.94;7394545;19;20397;-67
2023/07/17 02:19:23;;;;;;;5.05;3.38;;;;;;;18.04;53.08;100948.22;7395113;19;20078;-68
2023/07/17 02:21:51;;;;;;;5.57;3.90;;;;;;;18.00;53.19;100959.91;7393837;19;20564;-67
2023/07/17 02:24:20;;;;;;;7.28;3.85;;;;;;;17.95;53.49;100948.66;7394514;19;20074;-67
2023/07/17 02:26:49;;;;;;;5.75;3.30;;;;;;;17.91;53.68;100961.19;7394418;19;20086;-68
2023/07/17 02:29:17;;;;;;;5.70;3.03;;;;;;;17.88;53.59;100964.00;7394575;19;20018;-67
2023/07/17 02:31:46;;;;;;;5.65;3.63;;;;;;;17.81;53.89;100954.63;7394355;19;20088;-67
2023/07/17 02:34:17;;;;;;;8.02;4.43;;;;;;;17.80;54.17;100960.00;7392816;19;20087;-67
2023/07/17 02:36:46;;;;;;;5.32;3.90;;;;;;;17.75;54.14;100954.91;7392410;19;20037;-67
2023/07/17 02:39:14;;;;;;;7.28;3.80;;;;;;;17.71;54.30;100959.50;7393959;19;20018;-67
2023/07/17 02:41:42;;;;;;;5.25;3.75;;;;;;;17.67;54.25;100960.59;7393497;19;20090;-67
2023/07/17 02:44:11;;;;;;;7.63;3.70;;;;;;;17.63;54.57;100969.66;7391621;19;20537;-67
2023/07/17 02:46:39;;;;;;;5.95;3.92;;;;;;;17.62;54.53;100964.44;7394007;19;20123;-67
2023/07/17 02:49:11;;;;;;;6.35;4.30;;;;;;;17.58;54.43;100963.72;7393859;19;20035;-67
2023/07/17 02:51:43;;;;;;;7.32;3.90;;;;;;;17.54;54.96;100972.72;7391347;19;20512;-68
2023/07/17 02:54:11;;;;;;;6.55;3.63;;;;;;;17.50;54.94;100966.72;7392759;19;20018;-68
2023/07/17 02:56:40;;;;;;;5.05;3.80;;;;;;;17.43;54.68;100966.13;7393047;19;20015;-68
2023/07/17 02:59:08;;;;;;;7.00;4.13;;;;;;;17.44;54.93;100972.31;7393592;19;20014;-68
2023/07/17 03:01:37;;;;;;;4.72;3.28;;;;;;;17.43;54.88;100973.25;7392912;19;20367;-68
2023/07/17 03:04:06;;;;;;;7.97;4.10;;;;;;;17.41;54.91;100968.03;7393315;19;20022;-68
2023/07/17 03:06:34;;;;;;;8.15;3.67;;;;;;;17.40;55.19;100968.06;7393869;19;20024;-68
2023/07/17 03:09:05;;;;;;;12.88;5.05;;;;;;;17.38;55.33;100972.59;7399755;19;20078;-68
2023/07/17 03:11:34;;;;;;;8.70;3.95;;;;;;;17.36;54.97;100972.69;7400133;19;20078;-68
2023/07/17 03:14:02;;;;;;;6.13;3.72;;;;;;;17.35;55.17;100970.94;7398484;19;20489;-67
2023/07/17 03:16:31;;;;;;;5.47;4.00;;;;;;;17.34;55.16;100968.34;7399999;19;20482;-67
2023/07/17 03:18:59;;;;;;;8.57;4.35;;;;;;;17.32;55.34;100960.47;7400343;19;20023;-68
2023/07/17 03:21:28;;;;;;;6.72;4.40;;;;;;;17.31;55.36;100961.41;7400063;19;20021;-67
2023/07/17 03:23:56;;;;;;;6.03;4.18;;;;;;;17.30;55.72;100965.00;7399786;19;20434;-67
2023/07/17 03:26:27;;;;;;;6.20;3.85;;;;;;;17.30;55.86;100965.00;7399957;19;20019;-68
2023/07/17 03:28:56;;;;;;;6.65;3.65;;;;;;;17.28;55.99;100966.84;7400210;19;20036;-67
2023/07/17 03:31:24;;;;;;;8.43;4.13;;;;;;;17.27;55.98;100967.78;7396847;19;20082;-67
2023/07/17 03:33:53;;;;;;;7.43;3.70;;;;;;;17.26;55.90;100968.72;7398337;19;20086;-67
2023/07/17 03:36:21;;;;;;;6.13;4.50;;;;;;;17.26;56.20;100968.72;7400055;19;20095;-67
2023/07/17 03:38:49;;;;;;;7.05;4.07;;;;;;;17.24;56.46;100973.25;7399424;19;20078;-68
2023/07/17 03:41:20;;;;;;;8.88;4.00;;;;;;;17.22;56.35;100967.13;7399610;19;20018;-67
2023/07/17 03:43:52;;;;;;;7.68;4.07;;;;;;;17.20;56.77;100974.28;7396771;19;20079;-67
2023/07/17 03:46:20;;;;;;;6.68;4.50;;;;;;;17.18;56.92;100976.16;7399706;19;20019;-68
2023/07/17 03:48:49;;;;;;;7.10;4.30;;;;;;;17.15;57.11;100973.66;7398799;19;20078;-67
2023/07/17 03:51:17;;;;;;;5.72;3.72;;;;;;;17.13;57.06;100986.13;7397142;19;20090;-67
2023/07/17 03:53:46;;;;;;;6.15;4.20;;;;;;;17.10;57.13;100984.47;7396725;19;20031;-68
2023/07/17 03:56:14;;;;;;;6.40;4.40;;;;;;;17.07;57.41;100984.59;7399560;19;20035;-66
2023/07/17 03:58:42;;;;;;;10.40;5.13;;;;;;;17.05;57.43;100981.19;7395886;19;20082;-68
2023/07/17 04:01:14;;;;;;;7.35;3.83;;;;;;;17.03;57.77;100981.22;7398813;19;20086;-67
2023/07/17 04:03:42;;;;;;;8.57;4.30;;;;;;;17.01;57.55;100980.44;7395905;19;20015;-68
2023/07/17 04:06:10;;;;;;;10.05;4.55;;;;;;;17.00;57.79;100978.72;7397927;19;20091;-67
2023/07/17 04:08:39;;;;;;;8.00;4.32;;;;;;;16.99;57.94;100984.09;7395834;19;20021;-67
2023/07/17 04:11:07;;;;;;;5.57;3.78;;;;;;;16.99;58.21;100986.75;7395916;19;20521;-67
2023/07/17 04:13:36;;;;;;;9.82;5.07;;;;;;;16.98;58.22;100993.81;7396270;19;20026;-68
2023/07/17 04:16:06;;;;;;;8.75;4.53;;;;;;;16.99;57.90;100984.94;7396015;19;20338;-68
2023/07/17 04:18:37;;;;;;;8.70;4.38;;;;;;;16.99;58.14;100992.91;7397466;19;20078;-68
2023/07/17 04:21:05;;;;;;;7.20;4.18;;;;;;;17.01;57.93;100987.53;7396358;19;20070;-68
2023/07/17 04:23:34;;;;;;;9.18;4.20;;;;;;;17.00;58.22;100985.81;7395617;19;20501;-67
2023/07/17 04:26:02;;;;;;;8.65;4.70;;;;;;;17.00;58.33;100984.03;7395742;19;20086;-67
2023/07/17 04:28:31;;;;;;;7.22;4.47;;;;;;;17.03;58.22;100986.53;7397720;19;20041;-67
2023/07/17 04:30:59;;;;;;;8.07;5.68;;;;;;;17.04;58.06;100984.75;7395466;19;20066;-68
2023/07/17 04:33:29;;;;;;;9.18;5.63;;;;;;;17.06;57.98;100980.22;7395648;19;20026;-68
2023/07/17 04:36:00;;;;;;;9.45;4.75;;;;;;;17.09;58.37;100990.72;7397206;19;20254;-67
2023/07/17 04:38:28;;;;;;;6.90;4.30;;;;;;;17.13;58.22;100983.47;7397788;19;20078;-67
2023/07/17 04:40:57;;;;;;;8.07;5.07;;;;;;;17.16;58.01;100978.91;7394898;19;20540;-67
2023/07/17 04:43:25;;;;;;;6.60;4.32;;;;;;;17.21;58.00;100981.31;7395526;19;20086;-68
2023/07/17 04:45:54;;;;;;;6.70;4.65;;;;;;;17.25;57.81;100977.63;7394860;19;20090;-67
2023/07/17 04:48:22;;;;;;;7.05;4.38;;;;;;;17.30;57.70;100988.88;7396932;19;20066;-68
2023/07/17 04:50:50;;;;;;;7.60;4.47;;;;;;;17.34;57.87;100981.59;7396651;19;20549;-68
2023/07/17 04:53:21;;;;;;;7.32;4.35;;;;;;;17.38;57.85;100994.66;7395128;19;20058;-68
2023/07/17 04:55:50;;;;;;;7.43;4.68;;;;;;;17.43;57.67;100997.13;7397430;19;20031;-68
2023/07/17 04:58:20;;;;;;;6.43;4.10;;;;;;;17.47;57.86;101000.50;7396459;19;20027;-68
2023/07/17 05:00:49;;;;;;;8.40;4.63;;;;;;;17.52;57.85;101001.13;7394961;19;20078;-68
2023/07/17 05:03:18;;;;;;;6.07;5.07;;;;;;;17.56;57.80;101002.69;7394355;19;20018;-68
2023/07/17 05:05:50;;;;;;;14.50;7.32;;;;;;;17.60;57.69;101004.25;7396051;19;20010;-67
2023/07/17 05:08:21;;;;;;;7.75;4.75;;;;;;;17.67;57.65;101004.84;7396103;19;20420;-68
2023/07/17 05:10:55;;;;;;;8.77;4.82;;;;;;;17.73;57.75;101000.13;7394165;19;20074;-67
2023/07/17 05:13:24;;;;;;;9.80;4.93;;;;;;;17.78;57.71;101007.88;7395031;19;20034;-68
2023/07/17 05:15:53;;;;;;;8.93;4.03;;;;;;;17.86;57.39;101015.44;7396045;19;20095;-68
2023/07/17 05:18:22;;;;;;;8.23;4.68;;;;;;;17.92;57.28;101007.19;7394332;19;20078;-67
2023/07/17 05:20:52;;;;;;;6.72;4.32;;;;;;;17.98;57.23;101004.25;7394332;19;20035;-68
2023/07/17 05:23:23;;;;;;;7.63;4.53;;;;;;;18.02;57.34;101011.16;7393720;19;20027;-67
2023/07/17 05:25:56;;;;;;;6.90;4.55;;;;;;;18.10;57.10;101009.91;7395759;19;20086;-68
2023/07/17 05:28:25;;;;;;;6.50;4.80;;;;;;;18.17;56.92;101009.53;7395896;19;20085;-66
2023/07/17 05:30:54;;;;;;;9.77;4.70;;;;;;;18.24;57.04;101010.94;7393849;19;20417;-66
2023/07/17 05:33:29;;;;;;;8.45;4.13;;;;;;;18.32;56.86;101026.50;7393672;19;20018;-68
2023/07/17 05:35:57;;;;;;;9.02;5.88;;;;;;;18.39;56.61;101014.63;7395118;19;20022;-68
2023/07/17 05:38:29;;;;;;;10.07;4.88;;;;;;;18.48;56.72;101010.66;7393603;19;20082;-68
2023/07/17 05:41:01;;;;;;;7.68;4.55;;;;;;;18.55;56.61;101016.50;7393543;19;20440;-67
2023/07/17 05:43:29;;;;;;;7.40;4.28;;;;;;;18.64;56.14;101009.84;7393563;19;20014;-67
2023/07/17 05:45:58;;;;;;;6.90;4.10;;;;;;;18.71;56.02;101008.63;7393408;19;20017;-68
2023/07/17 05:48:26;;;;;;;6.50;4.15;;;;;;;18.80;55.98;101004.63;7395016;19;20086;-67
2023/07/17 05:50:55;;;;;;;6.90;4.60;;;;;;;18.88;55.82;101018.38;7394400;19;20035;-67
2023/07/17 05:53:24;;;;;;;11.85;5.22;;;;;;;18.94;55.48;101010.09;7393587;19;20424;-67
2023/07/17 05:55:55;;;;;;;8.10;4.38;;;;;;;19.01;55.69;101010.66;7392710;19;20014;-68
2023/07/17 05:58:23;;;;;;;11.88;4.78;;;;;;;19.04;55.37;101013.13;7395645;19;20035;-68
2023/07/17 06:00:52;;;;;;;7.90;4.68;;;;;;;19.09;55.30;101018.22;7392158;19;20466;-67
2023/07/17 06:03:20;;;;;;;6.63;3.85;;;;;;;19.11;55.25;101024.28;7391962;19;20018;-67
2023/07/17 06:05:49;;;;;;;7.10;4.85;;;;;;;19.14;55.21;101029.47;7394729;19;20028;-68
2023/07/17 06:08:23;;;;;;;8.38;4.57;;;;;;;19.16;55.22;101031.09;7393940;19;20018;-67
2023/07/17 06:10:55;;;;;;;8.20;4.75;;;;;;;19.20;55.21;101037.97;7392999;19;20089;-68
2023/07/17 06:13:23;;;;;;;9.25;5.60;;;;;;;19.24;55.49;101033.34;7393495;19;20027;-68
2023/07/17 06:15:51;;;;;;;6.63;5.40;;;;;;;19.31;55.21;101023.22;7392319;19;20430;-68
2023/07/17 06:18:20;;;;;;;5.40;4.38;;;;;;;19.40;55.17;101028.06;7393942;19;20039;-68
2023/07/17 06:20:48;;;;;;;8.95;4.72;;;;;;;19.49;54.92;101022.22;7394350;19;20082;-67
2023/07/17 06:23:17;;;;;;;7.53;4.82;;;;;;;19.62;54.23;101025.06;7392358;19;20028;-67
2023/07/17 06:25:45;;;;;;;7.30;4.80;;;;;;;19.74;54.27;101030.66;7393421;19;20553;-67
2023/07/17 06:28:16;;;;;;;15.88;7.75;;;;;;;19.87;53.75;101031.72;7393723;19;20082;-66
2023/07/17 06:30:47;;;;;;;9.40;4.53;;;;;;;19.98;53.92;101037.31;7391676;19;20010;-68
2023/07/17 06:33:16;;;;;;;7.65;4.95;;;;;;;20.08;53.74;101034.97;7392141;19;20477;-67
2023/07/17 06:35:46;;;;;;;6.63;4.32;;;;;;;20.17;53.01;101029.13;7391978;19;20018;-68
2023/07/17 06:38:14;;;;;;;9.45;4.72;;;;;;;20.26;52.37;101032.22;7393869;19;20085;-67
2023/07/17 06:40:43;;;;;;;7.50;4.05;;;;;;;20.35;52.33;101029.00;7393430;19;20028;-68
2023/07/17 06:43:11;;;;;;;7.93;4.30;;;;;;;20.45;52.10;101029.31;7396122;19;20451;-67
2023/07/17 06:45:42;;;;;;;8.05;4.32;;;;;;;20.55;51.20;101033.16;7400908;19;20085;-68
2023/07/17 06:48:11;;;;;;;7.57;4.25;;;;;;;20.63;50.77;101030.88;7398401;19;20033;-66
2023/07/17 06:50:39;;;;;;;6.07;4.30;;;;;;;20.73;50.60;101025.06;7398222;19;20018;-67
2023/07/17 06:53:08;;;;;;;10.18;4.55;;;;;;;20.80;49.49;101031.72;7398350;19;20428;-67
2023/07/17 06:55:36;;;;;;;6.18;4.50;;;;;;;20.88;49.21;101026.78;7397458;19;20018;-66
2023/07/17 06:58:05;;;;;;;6.90;4.38;;;;;;;20.95;48.85;101017.47;7400215;19;20065;-67
2023/07/17 07:00:33;;;;;;;7.80;4.00;;;;;;;21.03;48.90;101026.78;7399992;19;20014;-67
2023/07/17 07:03:04;;;;;;;7.10;4.63;;;;;;;21.11;48.36;101028.03;7398369;19;20417;-68
2023/07/17 07:05:32;;;;;;;6.55;4.63;;;;;;;21.17;48.21;101029.47;7398064;19;20018;-67
2023/07/17 07:08:02;;;;;;;6.60;4.57;;;;;;;21.24;48.07;101028.13;7399763;19;20510;-67
2023/07/17 07:10:43;;;;;;;6.75;4.55;;;;;;;21.32;48.22;101033.00;7396273;19;20024;-68
2023/07/17 07:13:12;;;;;;;8.82;4.28;;;;;;;21.39;47.89;101034.31;7397253;19;20082;-68
2023/07/17 07:15:40;;;;;;;7.55;4.25;;;;;;;21.48;47.30;101038.22;7398013;19;20074;-68
2023/07/17 07:18:11;;;;;;;7.65;3.95;;;;;;;21.55;46.35;101034.25;7399800;19;20018;-67
2023/07/17 07:20:40;;;;;;;9.35;4.10;;;;;;;21.63;45.20;101031.97;7400292;19;20086;-68
2023/07/17 07:23:08;;;;;;;6.90;4.40;;;;;;;21.75;45.22;101029.44;7397387;19;20509;-66
2023/07/17 07:25:37;;;;;;;6.63;3.70;;;;;;;21.81;44.42;101029.03;7399952;19;20093;-67
2023/07/17 07:28:06;;;;;;;9.88;4.10;;;;;;;21.89;44.43;101048.09;7399901;19;20022;-68
2023/07/17 07:30:34;;;;;;;6.93;3.63;;;;;;;21.95;44.03;101031.69;7397113;19;20019;-68
2023/07/17 07:33:03;;;;;;;9.07;4.05;;;;;;;22.04;44.04;101030.22;7398042;19;20092;-67
2023/07/17 07:35:34;;;;;;;9.02;4.38;;;;;;;22.15;43.20;101044.69;7398234;19;20086;-69
2023/07/17 07:38:02;;;;;;;5.68;3.40;;;;;;;22.22;42.91;101035.31;7397502;19;20070;-69
2023/07/17 07:40:31;;;;;;;9.30;3.55;;;;;;;22.30;42.81;101046.34;7398723;19;20031;-68
2023/07/17 07:42:59;;;;;;;7.38;3.38;;;;;;;22.39;42.27;101044.91;7397083;19;20022;-69
2023/07/17 07:45:28;;;;;;;5.78;2.90;;;;;;;22.50;41.29;101044.19;7399149;19;20035;-68
2023/07/17 07:47:57;;;;;;;14.57;3.00;;;;;;;22.57;40.97;101038.31;7398727;19;20051;-68
2023/07/17 07:50:25;;;;;;;6.13;3.35;;;;;;;22.65;40.37;101053.84;7398209;19;20037;-68
2023/07/17 07:52:57;;;;;;;6.78;3.20;;;;;;;22.70;39.93;101049.03;7396085;19;20082;-68
2023/07/17 07:55:25;;;;;;;6.88;2.58;;;;;;;22.78;39.65;101045.81;7397793;19;20023;-68
2023/07/17 07:57:54;;;;;;;4.97;2.45;;;;;;;22.84;39.61;101064.13;7398681;19;20082;-68
2023/07/17 08:00:22;;;;;;;7.07;2.90;;;;;;;22.93;38.94;101060.81;7398135;19;20372;-68
2023/07/17 08:02:53;;;;;;;4.53;2.42;;;;;;;23.00;38.80;101055.03;7396739;19;20552;-68
2023/07/17 08:05:22;;;;;;;5.43;2.67;;;;;;;23.09;38.66;101054.41;7398679;19;20011;-68
2023/07/17 08:07:51;;;;;;;5.75;3.25;;;;;;;23.18;38.03;101059.16;7396316;19;20078;-68
2023/07/17 08:10:22;;;;;;;5.90;2.78;;;;;;;23.28;37.99;101045.97;7398156;19;20035;-68
2023/07/17 08:12:50;;;;;;;6.03;3.28;;;;;;;23.38;36.93;101051.50;7396098;19;20085;-68
2023/07/17 08:15:19;;;;;;;7.13;3.10;;;;;;;23.42;37.50;101048.53;7397411;19;20032;-68
2023/07/17 08:17:47;;;;;;;5.00;2.70;;;;;;;23.47;36.96;101058.91;7397341;19;20517;-67
2023/07/17 08:20:16;;;;;;;7.25;2.88;;;;;;;23.51;36.60;101056.88;7398102;19;20077;-68
2023/07/17 08:22:44;;;;;;;7.40;3.10;;;;;;;23.52;36.24;101064.78;7396549;19;20078;-67
2023/07/17 08:25:13;;;;;;;6.07;2.78;;;;;;;23.53;36.94;101055.81;7397380;19;20035;-67
2023/07/17 08:27:44;;;;;;;7.00;3.55;;;;;;;23.55;36.38;101055.69;7397401;19;20074;-68
2023/07/17 08:30:13;;;;;;;8.75;3.00;;;;;;;23.60;36.80;101050.84;7397910;19;20021;-67
2023/07/17 08:32:42;;;;;;;6.97;3.33;;;;;;;23.65;36.42;101055.88;7395969;19;20031;-67
2023/07/17 08:35:11;;;;;;;8.73;4.00;;;;;;;23.70;36.57;101038.50;7395756;19;20510;-68
2023/07/17 08:37:39;;;;;;;5.30;2.70;;;;;;;23.76;36.66;101042.56;7396495;19;20422;-67
2023/07/17 08:40:10;;;;;;;7.93;3.38;;;;;;;23.87;36.65;101044.44;7397076;19;20023;-68
2023/07/17 08:42:40;;;;;;;6.60;3.55;;;;;;;23.96;35.92;101059.03;7396071;19;20070;-69
2023/07/17 08:45:12;;;;;;;5.50;3.17;;;;;;;24.03;35.01;101065.66;7397751;19;20027;-68
2023/07/17 08:47:41;;;;;;;3.50;2.63;;;;;;;24.11;35.79;101067.75;7397300;19;20066;-67
2023/07/17 08:50:11;;;;;;;9.77;3.28;;;;;;;24.11;35.38;101065.09;7394488;19;20073;-68
2023/07/17 08:52:40;;;;;;;6.45;3.05;;;;;;;24.08;34.65;101058.97;7395518;19;20073;-67
2023/07/17 08:55:10;;;;;;;7.97;3.67;;;;;;;24.08;34.47;101056.28;7394920;19;20018;-67
2023/07/17 08:57:39;;;;;;;7.68;3.08;;;;;;;24.09;35.11;101054.47;7396465;19;20025;-68
2023/07/17 09:00:15;;;;;;;8.48;3.47;;;;;;;24.12;35.27;101059.59;7397145;19;20091;-68
2023/07/17 09:02:44;;;;;;;8.65;3.28;;;;;;;24.14;34.67;101065.72;7395074;19;20018;-68
2023/07/17 09:05:12;;;;;;;5.93;3.63;;;;;;;24.16;34.82;101045.03;7393766;19;20014;-68
2023/07/17 09:07:41;;;;;;;8.02;3.30;;;;;;;24.20;34.58;101065.25;7396025;19;20073;-67
2023/07/17 09:10:17;;;;;;;4.90;3.38;;;;;;;24.28;33.68;101039.72;7396167;19;20022;-67
2023/07/17 09:12:45;;;;;;;6.30;3.70;;;;;;;24.37;34.86;101039.00;7397178;19;20027;-67
2023/07/17 09:15:19;;;;;;;7.85;3.90;;;;;;;24.51;34.40;101048.69;7394394;19;20026;-68
2023/07/17 09:17:47;;;;;;;5.63;2.92;;;;;;;24.67;34.17;101059.16;7394822;19;20090;-68
2023/07/17 09:20:19;;;;;;;7.20;3.83;;;;;;;24.78;32.70;101061.88;7393837;19;20489;-69
2023/07/17 09:22:48;;;;;;;6.70;3.22;;;;;;;24.88;33.31;101052.13;7394383;19;20018;-67
2023/07/17 09:25:18;;;;;;;5.05;3.10;;;;;;;24.94;32.78;101050.78;7396040;19;20081;-68
2023/07/17 09:27:48;;;;;;;7.22;3.65;;;;;;;25.00;32.86;101042.25;7395926;19;20040;-67
2023/07/17 09:30:20;;;;;;;5.65;3.58;;;;;;;25.09;32.39;101038.00;7395590;19;20077;-67
2023/07/17 09:32:50;;;;;;;7.07;4.18;;;;;;;25.17;32.70;101070.47;7394551;19;20084;-67
2023/07/17 09:35:23;;;;;;;4.35;3.10;;;;;;;25.16;32.00;101055.31;7394213;19;20081;-68
2023/07/17 09:37:53;;;;;;;6.10;3.60;;;;;;;25.15;32.33;101056.28;7393557;19;20385;-69
2023/07/17 09:40:21;;;;;;;7.32;3.40;;;;;;;25.17;32.25;101053.47;7394901;19;20445;-68
2023/07/17 09:42:55;;;;;;;7.00;3.70;;;;;;;25.20;31.98;101039.84;7394255;19;20030;-68
2023/07/17 09:45:27;;;;;;;6.18;3.33;;;;;;;25.29;31.39;101038.25;7394897;19;20017;-69
2023/07/17 09:47:56;;;;;;;6.95;3.08;;;;;;;25.35;31.89;101043.09;7394836;19;20035;-68
2023/07/17 09:50:26;;;;;;;8.45;3.28;;;;;;;25.43;31.72;101029.13;7394762;19;20085;-69
2023/07/17 09:52:55;;;;;;;7.88;3.15;;;;;;;25.50;31.52;101033.00;7393504;19;20034;-68
2023/07/17 09:55:28;;;;;;;7.90;3.17;;;;;;;25.58;30.47;101033.25;7394548;19;20082;-70
2023/07/17 09:58:01;;;;;;;6.38;3.72;;;;;;;25.69;30.95;101021.63;7395486;19;20018;-69
2023/07/17 10:00:32;;;;;;;8.05;3.58;;;;;;;25.82;31.05;101021.50;7392088;19;20334;-69
2023/07/17 10:03:07;;;;;;;10.38;3.35;;;;;;;25.94;30.31;101017.75;7393143;19;20372;-70
2023/07/17 10:05:36;;;;;;;7.45;3.05;;;;;;;26.02;30.16;101038.63;7395173;19;20019;-70
2023/07/17 10:08:08;;;;;;;8.80;4.13;;;;;;;26.11;30.31;101034.34;7394441;19;20022;-69
2023/07/17 10:10:38;;;;;;;5.38;3.30;;;;;;;26.10;30.23;101040.75;7393003;19;20074;-69
2023/07/17 10:13:08;;;;;;;9.20;3.78;;;;;;;26.09;30.60;101036.34;7392379;19;20078;-69
2023/07/17 10:15:40;;;;;;;5.45;3.05;;;;;;;26.10;30.31;101040.75;7394978;19;20083;-69
2023/07/17 10:18:12;;;;;;;4.95;2.70;;;;;;;26.13;29.83;101035.94;7401897;19;20418;-68
2023/07/17 10:20:41;;;;;;;5.43;3.10;;;;;;;26.19;29.46;101037.28;7402251;19;20086;-69
2023/07/17 10:23:24;;;;;;;5.45;2.80;;;;;;;26.25;29.28;101041.28;7398980;19;20019;-69
2023/07/17 10:25:53;;;;;;;5.53;2.65;;;;;;;26.27;29.47;101039.31;7402137;19;20370;-69
2023/07/17 10:28:34;;;;;;;7.30;3.30;;;;;;;26.23;29.17;101038.72;7400946;19;20015;-69
2023/07/17 10:31:18;;;;;;;7.20;3.30;;;;;;;26.17;28.76;101040.09;7401105;19;20086;-68
2023/07/17 10:33:51;;;;;;;7.15;3.40;;;;;;;26.12;29.46;101036.06;7397905;19;20078;-69
2023/07/17 10:36:20;;;;;;;7.43;3.10;;;;;;;26.06;29.87;101042.81;7400384;19;20025;-69
2023/07/17 10:38:53;;;;;;;6.72;3.17;;;;;;;26.03;29.44;101029.59;7401513;19;20074;-70
2023/07/17 10:41:28;;;;;;;;;;;;;;;26.06;29.95;101031.19;7401754;19;20014;-68
2023/07/17 10:43:58;;;;;;;6.20;2.80;;;;;;;26.09;29.75;101025.59;7398145;19;19974;-69
2023/07/17 10:46:34;;;;;;;8.68;3.00;;;;;;;26.11;29.17;101023.59;7400580;19;20015;-69
2023/07/17 10:49:09;;;;;;;5.05;3.25;;;;;;;26.10;29.98;101008.47;7400688;19;20014;-69
2023/07/17 10:51:39;;;;;;;5.90;3.15;;;;;;;26.17;29.86;101025.78;7397801;19;20423;-68
2023/07/17 10:54:08;;;;;;;7.10;2.83;;;;;;;26.25;28.88;101000.94;7398286;19;20406;-69
2023/07/17 10:56:37;;;;;;;6.18;3.20;;;;;;;26.32;27.95;100999.44;7398860;19;20082;-69
2023/07/17 10:59:05;;;;;;;9.65;2.60;;;;;;;26.43;28.38;101004.75;7397508;19;20015;-69
2023/07/17 11:01:36;;;;;;;8.05;2.58;;;;;;;26.54;28.08;101011.06;7399411;19;20085;-68
2023/07/17 11:04:09;;;;;;;7.10;2.97;;;;;;;26.64;27.96;101022.72;7399894;19;20023;-68
2023/07/17 11:06:37;;;;;;;;;;;;;;;26.70;28.43;101014.13;7400496;19;20021;-69
2023/07/17 11:09:07;;;;;;;7.35;3.10;;;;;;;26.73;27.87;101022.00;7398997;19;20318;-69
2023/07/17 11:11:35;;;;;;;8.13;2.70;;;;;;;26.75;28.53;101011.94;7398462;19;20026;-69
2023/07/17 11:14:05;;;;;;;14.73;3.25;;;;;;;26.83;28.66;101017.53;7398816;19;20546;-68
2023/07/17 11:16:36;;;;;;;12.65;3.17;;;;;;;26.93;28.11;101019.41;7398377;19;20024;-70
2023/07/17 11:19:05;;;;;;;9.32;2.67;;;;;;;27.00;28.38;101025.97;7399184;19;20527;-68
2023/07/17 11:21:34;;;;;;;9.07;2.53;;;;;;;27.01;28.01;101019.59;7395734;19;20518;-68
2023/07/17 11:24:02;;;;;;;6.13;3.08;;;;;;;27.01;28.07;101033.06;7396676;19;20087;-69
2023/07/17 11:26:33;;;;;;;7.07;2.70;;;;;;;26.93;28.00;101017.56;7398922;19;20027;-69
2023/07/17 11:29:03;;;;;;;10.73;2.95;;;;;;;26.87;28.27;101025.31;7397377;19;20033;-69
2023/07/17 11:31:34;;;;;;;9.57;3.00;;;;;;;26.78;28.79;101037.72;7399407;19;20049;-68
2023/07/17 11:34:09;;;;;;;8.93;2.95;;;;;;;26.79;28.58;101005.31;7398948;19;20164;-69
2023/07/17 11:36:42;;;;;;;6.47;2.47;;;;;;;26.88;28.21;101005.50;7396796;19;20045;-68